Time;durP1;ratioP1;P1;durP2;ratioP2;P2;SDS_P1;SDS_P2;PMS_P1;PMS_P2;Temp;Humidity;BMP_temperature;BMP_pressure;BME280_temperature;BME280_humidity;BME280_pressure;Samples;Min_cycle;Max_cycle;Signal;HPM_P1;HPM_P2
2023/01/29 00:00:09;;;;;;;59.05;31.45;;;1.60;99.90;;;;;;5054835;28;20123;-70
2023/01/29 00:02:38;;;;;;;55.75;32.78;;;1.60;99.90;;;;;;5058847;28;20036;-70
2023/01/29 00:05:05;;;;;;;55.30;31.58;;;1.60;99.90;;;;;;5061194;28;20029;-69
2023/01/29 00:07:31;;;;;;;58.72;32.10;;;1.70;99.90;;;;;;5059024;28;20506;-70
2023/01/29 00:09:57;;;;;;;58.55;32.90;;;1.60;99.90;;;;;;5058758;28;20025;-71
2023/01/29 00:12:23;;;;;;;58.50;34.65;;;1.60;99.90;;;;;;5058897;28;20381;-72
2023/01/29 00:14:48;;;;;;;56.08;32.80;;;1.60;99.90;;;;;;5055875;28;20124;-71
2023/01/29 00:17:14;;;;;;;53.08;32.47;;;1.70;99.90;;;;;;5042645;28;20028;-70
2023/01/29 00:19:40;;;;;;;55.70;32.15;;;1.60;99.90;;;;;;5054917;28;20132;-70
2023/01/29 00:22:06;;;;;;;61.15;33.33;;;1.60;99.90;;;;;;5055757;28;20021;-69
2023/01/29 00:24:32;;;;;;;57.50;32.47;;;1.60;99.90;;;;;;5055446;28;20024;-69
2023/01/29 00:26:57;;;;;;;56.83;31.95;;;1.70;99.90;;;;;;5055888;28;20385;-70
2023/01/29 00:29:25;;;;;;;50.90;30.35;;;1.60;99.90;;;;;;5070446;28;20028;-70
2023/01/29 00:31:50;;;;;;;51.67;32.85;;;1.60;99.90;;;;;;5055633;28;20033;-75
2023/01/29 00:34:16;;;;;;;56.33;31.10;;;1.60;99.90;;;;;;5056389;28;20028;-71
2023/01/29 00:36:44;;;;;;;57.53;32.90;;;1.60;99.90;;;;;;5057094;28;20092;-73
2023/01/29 00:39:11;;;;;;;55.85;33.20;;;1.60;99.90;;;;;;5061441;28;20046;-70
2023/01/29 00:49:50;;;;;;;51.85;32.25;;;1.60;99.90;;;;;;5054744;28;20029;-75
2023/01/29 00:52:25;;;;;;;52.45;31.13;;;1.60;99.90;;;;;;5053520;28;20493;-70
2023/01/29 00:54:53;;;;;;;57.13;30.90;;;1.60;99.90;;;;;;5054750;28;20021;-70
2023/01/29 00:57:20;;;;;;;53.78;32.08;;;1.60;99.90;;;;;;5054801;28;20033;-72
2023/01/29 00:59:46;;;;;;;52.08;31.50;;;1.70;99.90;;;;;;5054775;28;20033;-71
2023/01/29 01:04:56;;;;;;;52.83;31.73;;;1.70;99.90;;;;;;5056355;28;20036;-70
2023/01/29 01:07:22;;;;;;;47.78;29.88;;;1.70;99.90;;;;;;5053970;28;20888;-70
2023/01/29 01:12:33;;;;;;;52.58;31.38;;;1.70;99.90;;;;;;5054456;28;20380;-70
2023/01/29 01:14:59;;;;;;;55.63;31.55;;;1.60;99.90;;;;;;5054819;28;20037;-71
2023/01/29 01:17:25;;;;;;;50.72;30.42;;;1.60;99.90;;;;;;5054211;28;20421;-72
2023/01/29 01:19:51;;;;;;;53.50;29.40;;;1.60;99.90;;;;;;5069877;28;20061;-72
2023/01/29 01:22:17;;;;;;;48.95;29.17;;;1.70;99.90;;;;;;5054314;28;20100;-70
2023/01/29 01:24:43;;;;;;;49.58;29.95;;;1.70;99.90;;;;;;5054357;28;20032;-69
2023/01/29 01:27:12;;;;;;;51.55;33.20;;;1.70;99.90;;;;;;5054193;28;20356;-69
2023/01/29 01:29:38;;;;;;;50.70;31.95;;;1.60;99.90;;;;;;5054444;28;20480;-70
2023/01/29 01:32:04;;;;;;;54.15;30.38;;;1.60;99.90;;;;;;5053161;28;20096;-70
2023/01/29 01:34:31;;;;;;;53.88;31.10;;;1.60;99.90;;;;;;5065694;28;20028;-73
2023/01/29 01:36:56;;;;;;;53.25;30.05;;;1.60;99.90;;;;;;5054561;28;20021;-71
2023/01/29 01:39:23;;;;;;;57.53;32.13;;;1.60;99.90;;;;;;5054083;28;20033;-69
2023/01/29 01:41:52;;;;;;;56.13;32.42;;;1.60;99.90;;;;;;5053972;28;20028;-69
2023/01/29 01:44:55;;;;;;;55.35;30.35;;;1.60;99.90;;;;;;5054169;28;20025;-69
2023/01/29 01:47:40;;;;;;;52.92;31.42;;;1.60;99.90;;;;;;5055115;28;20086;-72
2023/01/29 01:50:21;;;;;;;56.58;33.63;;;1.60;99.90;;;;;;5053407;28;20017;-72
2023/01/29 01:52:51;;;;;;;49.55;29.90;;;1.60;99.90;;;;;;5043094;28;20037;-71
2023/01/29 01:55:23;;;;;;;58.03;33.10;;;1.60;99.90;;;;;;5052118;28;20029;-70
2023/01/29 01:57:54;;;;;;;52.10;30.48;;;1.60;99.90;;;;;;5053903;28;20044;-72
2023/01/29 02:00:22;;;;;;;54.13;31.08;;;1.60;99.90;;;;;;5053553;28;20037;-71
2023/01/29 02:11:12;;;;;;;52.00;30.85;;;1.60;99.90;;;;;;5052018;28;20519;-74
2023/01/29 02:13:38;;;;;;;53.15;30.73;;;1.60;99.90;;;;;;5053604;28;20032;-72
2023/01/29 02:16:04;;;;;;;50.25;31.27;;;1.60;99.90;;;;;;5062053;28;20543;-72
2023/01/29 02:18:36;;;;;;;52.30;29.95;;;1.50;99.90;;;;;;5063634;28;20525;-72
2023/01/29 02:21:31;;;;;;;60.72;32.60;;;1.50;99.90;;;;;;5040647;28;20033;-71
2023/01/29 02:24:34;;;;;;;59.78;32.28;;;1.60;99.90;;;;;;5053361;28;20112;-70
2023/01/29 02:27:39;;;;;;;53.95;30.65;;;1.50;99.90;;;;;;5068448;28;20029;-70
2023/01/29 02:30:13;;;;;;;52.75;30.90;;;1.60;99.90;;;;;;5044641;28;20075;-70
2023/01/29 02:33:06;;;;;;;62.30;32.78;;;1.60;99.90;;;;;;5068355;28;20032;-72
2023/01/29 02:35:47;;;;;;;54.97;33.30;;;1.60;99.90;;;;;;5051704;28;20025;-71
2023/01/29 02:38:42;;;;;;;52.70;32.38;;;1.60;99.90;;;;;;5052420;28;20033;-71
2023/01/29 02:41:15;;;;;;;52.83;30.02;;;1.50;99.90;;;;;;5062796;28;20041;-70
2023/01/29 02:44:03;;;;;;;49.00;29.50;;;1.60;99.90;;;;;;5064215;28;20026;-73
2023/01/29 02:46:35;;;;;;;56.08;31.70;;;1.60;99.90;;;;;;5047508;28;20068;-72
2023/01/29 02:49:44;;;;;;;53.25;31.65;;;1.60;99.90;;;;;;5051232;28;20116;-71
2023/01/29 02:52:22;;;;;;;54.28;32.13;;;1.60;99.90;;;;;;5040897;28;20033;-72
2023/01/29 02:55:01;;;;;;;57.28;29.98;;;1.60;99.90;;;;;;5048962;28;20029;-71
2023/01/29 02:57:47;;;;;;;56.40;31.77;;;1.60;99.90;;;;;;5053372;28;20164;-70
2023/01/29 03:00:32;;;;;;;58.22;33.65;;;1.60;99.90;;;;;;5052613;28;20044;-72
2023/01/29 03:03:28;;;;;;;55.55;31.75;;;1.60;99.90;;;;;;5068057;28;20033;-70
2023/01/29 03:06:10;;;;;;;56.90;31.25;;;1.60;99.90;;;;;;5057667;28;20041;-70
2023/01/29 03:08:52;;;;;;;50.78;28.85;;;1.60;99.90;;;;;;5038457;28;20029;-73
2023/01/29 03:11:19;;;;;;;56.10;32.30;;;1.60;99.90;;;;;;5052485;28;20033;-71
2023/01/29 03:14:03;;;;;;;56.17;33.78;;;1.60;99.90;;;;;;5051573;28;20032;-69
2023/01/29 03:16:44;;;;;;;53.47;29.83;;;1.60;99.90;;;;;;5051480;28;20058;-72
2023/01/29 03:19:41;;;;;;;52.95;29.90;;;1.60;99.90;;;;;;5052401;28;20538;-71
2023/01/29 03:22:22;;;;;;;54.22;30.98;;;1.60;99.90;;;;;;4979884;28;20481;-72
2023/01/29 03:34:27;;;;;;;50.88;29.73;;;1.60;99.90;;;;;;4999950;28;20137;-71
2023/01/29 03:37:00;;;;;;;49.50;27.40;;;1.60;99.90;;;;;;5004294;28;20036;-70
2023/01/29 03:39:27;;;;;;;52.60;31.52;;;1.60;99.90;;;;;;5010798;28;20049;-72
2023/01/29 03:42:20;;;;;;;61.22;33.60;;;1.60;99.90;;;;;;4994428;28;20026;-70
2023/01/29 03:45:15;;;;;;;58.20;32.58;;;1.50;99.90;;;;;;4983411;28;20035;-73
2023/01/29 03:47:53;;;;;;;57.22;31.58;;;1.60;99.90;;;;;;5010711;28;20049;-72
2023/01/29 03:50:34;;;;;;;50.15;30.55;;;1.60;99.90;;;;;;5004830;28;20045;-70
2023/01/29 03:53:24;;;;;;;53.30;30.55;;;1.60;99.90;;;;;;4997912;28;20132;-72
2023/01/29 03:56:05;;;;;;;52.88;32.15;;;1.60;99.90;;;;;;4997976;28;20030;-72
2023/01/29 03:58:41;;;;;;;54.78;31.08;;;1.60;99.90;;;;;;5023615;28;20060;-70
2023/01/29 04:01:22;;;;;;;60.10;32.30;;;1.60;99.90;;;;;;5054766;28;20094;-72
2023/01/29 04:03:51;;;;;;;52.72;33.10;;;1.60;99.90;;;;;;5042516;28;20037;-70
2023/01/29 04:06:26;;;;;;;61.53;32.50;;;1.60;99.90;;;;;;5069917;28;20025;-72
2023/01/29 04:09:14;;;;;;;54.13;31.20;;;1.60;99.90;;;;;;5045670;28;20025;-70
2023/01/29 04:11:51;;;;;;;53.05;30.88;;;1.60;99.90;;;;;;5054602;28;20031;-70
2023/01/29 04:14:18;;;;;;;60.00;30.67;;;1.60;99.90;;;;;;5037917;28;20033;-71
2023/01/29 04:16:51;;;;;;;54.97;31.38;;;1.70;99.90;;;;;;5071659;28;20032;-70
2023/01/29 04:19:35;;;;;;;53.42;32.30;;;1.60;99.90;;;;;;5070750;28;20044;-73
2023/01/29 04:22:17;;;;;;;54.95;31.33;;;1.70;99.90;;;;;;5054463;28;20053;-71
2023/01/29 04:24:44;;;;;;;59.90;32.90;;;1.60;99.90;;;;;;5057773;28;20124;-70
2023/01/29 04:27:10;;;;;;;54.72;28.88;;;1.60;99.90;;;;;;5070285;28;20091;-71
2023/01/29 04:29:58;;;;;;;50.65;30.25;;;1.70;99.90;;;;;;5041290;28;20029;-70
2023/01/29 04:32:37;;;;;;;53.85;30.08;;;1.70;99.90;;;;;;5081721;28;20473;-71
2023/01/29 04:35:21;;;;;;;51.28;31.00;;;1.60;99.90;;;;;;5054073;28;20033;-70
2023/01/29 04:38:03;;;;;;;54.60;32.25;;;1.60;99.90;;;;;;5034327;28;20033;-70
2023/01/29 04:40:40;;;;;;;53.95;31.83;;;1.60;99.90;;;;;;5038224;28;20574;-71
2023/01/29 04:43:18;;;;;;;53.80;30.52;;;1.60;99.90;;;;;;5061752;28;20468;-71
2023/01/29 04:46:05;;;;;;;55.67;30.23;;;1.60;99.90;;;;;;5055164;28;20598;-70
2023/01/29 04:48:55;;;;;;;54.33;33.05;;;1.60;99.90;;;;;;5041743;28;20025;-70
2023/01/29 04:51:30;;;;;;;58.10;30.35;;;1.60;99.90;;;;;;5055177;28;20030;-70
2023/01/29 04:54:15;;;;;;;51.28;31.02;;;1.60;99.90;;;;;;5055314;28;20040;-71
2023/01/29 04:56:47;;;;;;;60.28;31.40;;;1.60;99.90;;;;;;5055124;28;20424;-70
2023/01/29 04:59:20;;;;;;;51.43;31.10;;;1.60;99.90;;;;;;5055077;28;20388;-71
2023/01/29 05:01:47;;;;;;;57.30;30.90;;;1.60;99.90;;;;;;5054406;28;20464;-71
2023/01/29 05:04:17;;;;;;;56.35;31.65;;;1.60;99.90;;;;;;5054635;28;20029;-71
2023/01/29 05:06:46;;;;;;;52.80;31.60;;;1.60;99.90;;;;;;5041496;28;20021;-76
2023/01/29 05:09:15;;;;;;;55.67;29.80;;;1.60;99.90;;;;;;5054638;28;20372;-72
2023/01/29 05:11:42;;;;;;;51.88;32.05;;;1.60;99.90;;;;;;5041629;28;20017;-71
2023/01/29 05:14:13;;;;;;;52.35;29.23;;;1.60;99.90;;;;;;5050995;28;20429;-71
2023/01/29 05:16:46;;;;;;;51.65;29.92;;;1.60;99.90;;;;;;5046002;28;20029;-72
2023/01/29 05:19:14;;;;;;;57.22;31.80;;;1.60;99.90;;;;;;5054166;28;20435;-71
2023/01/29 05:21:44;;;;;;;48.22;29.20;;;1.60;99.90;;;;;;5053745;28;20025;-71
2023/01/29 05:24:16;;;;;;;47.17;29.88;;;1.60;99.90;;;;;;5054432;28;20515;-73
2023/01/29 05:29:29;;;;;;;53.72;31.00;;;1.60;99.90;;;;;;5054305;28;20029;-70
2023/01/29 05:31:55;;;;;;;55.95;30.25;;;1.60;99.90;;;;;;5053936;28;20023;-72
2023/01/29 05:34:21;;;;;;;51.75;33.08;;;1.60;99.90;;;;;;5054859;28;20372;-70
2023/01/29 05:36:47;;;;;;;54.90;32.38;;;1.60;99.90;;;;;;5061502;28;20025;-71
2023/01/29 05:39:12;;;;;;;53.15;30.38;;;1.60;99.90;;;;;;5053745;28;20429;-72
2023/01/29 05:41:38;;;;;;;53.13;30.10;;;1.60;99.90;;;;;;5053795;28;20040;-71
2023/01/29 05:44:04;;;;;;;50.75;29.90;;;1.60;99.90;;;;;;5053878;28;20027;-71
2023/01/29 05:46:30;;;;;;;50.63;29.60;;;1.60;99.90;;;;;;5053563;28;20389;-71
2023/01/29 05:48:56;;;;;;;50.50;30.52;;;1.60;99.90;;;;;;5052922;28;20512;-71
2023/01/29 05:51:22;;;;;;;49.22;30.90;;;1.60;99.90;;;;;;5053897;28;20515;-71
2023/01/29 05:53:48;;;;;;;57.75;31.85;;;1.60;99.90;;;;;;5054105;28;20032;-70
2023/01/29 05:56:13;;;;;;;58.25;31.38;;;1.70;99.90;;;;;;5053804;28;20128;-70
2023/01/29 05:58:39;;;;;;;51.83;28.63;;;1.70;99.90;;;;;;5053768;28;20425;-71
2023/01/29 06:01:14;;;;;;;49.85;29.38;;;1.60;99.90;;;;;;5053679;28;20028;-71
2023/01/29 06:03:40;;;;;;;50.10;29.08;;;1.70;99.90;;;;;;5041244;28;20090;-70
2023/01/29 06:06:07;;;;;;;47.95;28.55;;;1.70;99.90;;;;;;5053820;28;20029;-71
2023/01/29 06:08:33;;;;;;;58.65;30.98;;;1.60;99.90;;;;;;5053668;28;20051;-71
2023/01/29 06:10:59;;;;;;;53.08;31.13;;;1.70;99.90;;;;;;5053740;28;20072;-72
2023/01/29 06:13:24;;;;;;;51.53;29.80;;;1.70;99.90;;;;;;5044953;28;20041;-71
2023/01/29 06:15:50;;;;;;;53.83;30.55;;;1.70;99.90;;;;;;5047936;28;20033;-70
2023/01/29 06:18:16;;;;;;;56.00;29.52;;;1.60;99.90;;;;;;5053403;28;20024;-70
2023/01/29 06:20:42;;;;;;;51.15;29.67;;;1.60;99.90;;;;;;5053048;28;20500;-70
2023/01/29 06:23:08;;;;;;;57.10;30.05;;;1.60;99.90;;;;;;5053605;28;20024;-71
2023/01/29 06:25:34;;;;;;;50.90;29.40;;;1.60;99.90;;;;;;5053067;28;20542;-71
2023/01/29 06:28:00;;;;;;;53.83;30.48;;;1.60;99.90;;;;;;5053385;28;20021;-70
2023/01/29 06:30:27;;;;;;;51.53;29.40;;;1.70;99.90;;;;;;5053246;28;20109;-71
2023/01/29 06:33:00;;;;;;;55.17;33.10;;;1.70;99.90;;;;;;5053187;28;20033;-70
2023/01/29 06:35:26;;;;;;;58.35;31.63;;;1.70;99.90;;;;;;5053184;28;20029;-72
2023/01/29 06:37:52;;;;;;;55.67;33.13;;;1.70;99.90;;;;;;5053560;28;20025;-71
2023/01/29 06:40:18;;;;;;;59.33;33.58;;;1.70;99.90;;;;;;5052915;28;20041;-70
2023/01/29 06:42:44;;;;;;;62.88;35.78;;;1.70;99.90;;;;;;5053189;28;20022;-71
2023/01/29 06:45:10;;;;;;;55.70;31.23;;;1.70;99.90;;;;;;5055753;28;20066;-71
2023/01/29 06:47:36;;;;;;;51.67;30.98;;;1.70;99.90;;;;;;5052994;28;20530;-70
2023/01/29 06:50:03;;;;;;;55.00;32.88;;;1.70;99.90;;;;;;5052762;28;20033;-70
2023/01/29 06:52:28;;;;;;;51.03;30.17;;;1.70;99.90;;;;;;5052675;28;20036;-72
2023/01/29 06:54:55;;;;;;;66.20;34.08;;;1.70;99.90;;;;;;5041020;28;20481;-71
2023/01/29 06:57:21;;;;;;;63.75;35.55;;;1.70;99.90;;;;;;5052788;28;20441;-71
2023/01/29 06:59:47;;;;;;;60.05;32.88;;;1.70;99.90;;;;;;5052858;28;20033;-70
2023/01/29 07:02:13;;;;;;;66.13;36.78;;;1.70;99.90;;;;;;5052665;28;20502;-71
2023/01/29 07:04:40;;;;;;;59.72;33.72;;;1.70;99.90;;;;;;5049260;28;20488;-73
2023/01/29 07:07:11;;;;;;;64.28;34.83;;;1.70;99.90;;;;;;5048106;28;20070;-70
2023/01/29 07:09:41;;;;;;;64.55;35.28;;;1.70;99.90;;;;;;5043138;28;20383;-70
2023/01/29 07:12:09;;;;;;;63.58;37.40;;;1.70;99.90;;;;;;5041530;28;20021;-72
2023/01/29 07:14:35;;;;;;;65.47;35.50;;;1.70;99.90;;;;;;5042250;28;20025;-70
2023/01/29 07:17:01;;;;;;;62.17;37.78;;;1.80;99.90;;;;;;5043348;28;20025;-69
2023/01/29 07:19:27;;;;;;;60.65;35.78;;;1.70;99.90;;;;;;5043680;28;20037;-70
2023/01/29 07:21:52;;;;;;;57.17;34.47;;;1.80;99.90;;;;;;5052307;28;20108;-70
2023/01/29 07:24:18;;;;;;;59.63;34.17;;;1.70;99.90;;;;;;5054208;28;20032;-69
2023/01/29 07:26:45;;;;;;;61.17;33.97;;;1.70;99.90;;;;;;5056224;28;20025;-68
2023/01/29 07:29:10;;;;;;;58.35;33.65;;;1.80;99.90;;;;;;5056095;28;20086;-69
2023/01/29 07:31:36;;;;;;;61.25;33.97;;;1.80;99.90;;;;;;5056013;28;20468;-70
2023/01/29 07:34:02;;;;;;;61.03;32.30;;;1.80;99.90;;;;;;5056134;28;20021;-69
2023/01/29 07:36:28;;;;;;;60.30;34.30;;;1.80;99.90;;;;;;5048685;28;20021;-70
2023/01/29 07:38:54;;;;;;;68.57;37.90;;;1.80;99.90;;;;;;5047048;28;20112;-71
2023/01/29 07:41:20;;;;;;;59.65;35.08;;;1.80;99.90;;;;;;5044987;28;20030;-72
2023/01/29 07:43:47;;;;;;;62.78;34.95;;;1.80;99.90;;;;;;5046337;28;20021;-71
2023/01/29 07:46:12;;;;;;;53.85;33.35;;;1.80;99.90;;;;;;5046513;28;20116;-69
2023/01/29 07:48:38;;;;;;;58.55;33.78;;;1.80;99.90;;;;;;5047396;28;20104;-70
2023/01/29 07:51:04;;;;;;;57.97;32.13;;;1.80;99.90;;;;;;5049723;28;20029;-70
2023/01/29 07:53:30;;;;;;;60.65;37.47;;;1.80;99.90;;;;;;5047209;28;20029;-69
2023/01/29 07:55:56;;;;;;;60.90;35.15;;;1.80;99.90;;;;;;5046742;28;20082;-70
2023/01/29 07:58:22;;;;;;;66.28;36.40;;;1.80;99.90;;;;;;5045395;28;20079;-71
2023/01/29 08:00:48;;;;;;;63.65;39.63;;;1.90;99.90;;;;;;5045489;28;20498;-70
2023/01/29 08:03:17;;;;;;;59.85;38.20;;;1.90;99.90;;;;;;5046615;28;20034;-70
2023/01/29 08:05:44;;;;;;;61.75;36.95;;;1.90;99.90;;;;;;5045299;28;20025;-70
2023/01/29 08:08:10;;;;;;;54.20;33.72;;;1.90;99.90;;;;;;5053532;28;20115;-71
2023/01/29 08:10:38;;;;;;;60.95;36.22;;;1.90;99.90;;;;;;5055517;28;20535;-71
2023/01/29 08:13:05;;;;;;;64.85;35.75;;;1.90;99.90;;;;;;5055711;28;20368;-70
2023/01/29 08:15:31;;;;;;;61.60;35.50;;;1.90;99.90;;;;;;5051455;28;20037;-71
2023/01/29 08:17:57;;;;;;;60.53;36.10;;;1.90;99.90;;;;;;5045335;28;20028;-70
2023/01/29 08:20:23;;;;;;;62.10;36.60;;;1.90;99.90;;;;;;5044876;28;20061;-70
2023/01/29 08:22:57;;;;;;;65.22;36.67;;;1.90;99.90;;;;;;5046553;28;20495;-71
2023/01/29 08:25:22;;;;;;;;;;;1.90;99.90;;;;;;5055791;28;20032;-70
2023/01/29 08:27:48;;;;;;;67.50;37.92;;;1.90;99.90;;;;;;5049682;28;19913;-70
2023/01/29 08:30:14;;;;;;;66.93;38.60;;;1.90;99.90;;;;;;5055383;28;20032;-70
2023/01/29 08:32:40;;;;;;;62.70;36.38;;;1.90;99.90;;;;;;5055075;28;20384;-72
2023/01/29 08:35:06;;;;;;;58.65;34.55;;;1.90;99.90;;;;;;5053766;28;20546;-70
2023/01/29 08:37:31;;;;;;;62.13;36.20;;;2.00;99.90;;;;;;5053889;28;20116;-70
2023/01/29 08:39:57;;;;;;;57.88;35.20;;;2.00;99.90;;;;;;5048574;28;20119;-71
2023/01/29 08:42:23;;;;;;;58.45;31.75;;;2.00;99.90;;;;;;5053052;28;20017;-70
2023/01/29 08:44:49;;;;;;;55.92;33.08;;;2.00;99.90;;;;;;5055141;28;20041;-69
2023/01/29 08:47:15;;;;;;;52.13;31.38;;;2.00;99.90;;;;;;5041078;28;20021;-69
2023/01/29 08:49:40;;;;;;;52.85;29.38;;;2.00;99.90;;;;;;5053672;28;20037;-70
2023/01/29 08:52:06;;;;;;;54.55;30.50;;;2.00;99.90;;;;;;5054574;28;20092;-71
2023/01/29 08:54:32;;;;;;;54.80;31.77;;;2.00;99.90;;;;;;5053378;28;20432;-69
2023/01/29 08:56:58;;;;;;;60.58;32.70;;;2.10;99.90;;;;;;5044249;28;20105;-70
2023/01/29 08:59:24;;;;;;;57.78;32.28;;;2.10;99.90;;;;;;5046303;28;20071;-70
2023/01/29 09:01:49;;;;;;;54.95;32.38;;;2.10;99.90;;;;;;5050176;28;20033;-71
2023/01/29 09:04:15;;;;;;;50.47;33.40;;;2.10;99.90;;;;;;5052699;28;20029;-70
2023/01/29 09:06:41;;;;;;;56.05;30.65;;;2.20;99.90;;;;;;5042763;28;20575;-71
2023/01/29 09:09:07;;;;;;;50.50;31.73;;;2.20;99.90;;;;;;5054648;28;20365;-69
2023/01/29 09:11:33;;;;;;;52.58;30.17;;;2.30;99.90;;;;;;5061246;28;20047;-70
2023/01/29 09:13:58;;;;;;;51.25;32.30;;;2.30;99.90;;;;;;5053284;28;20492;-73
2023/01/29 09:16:24;;;;;;;53.45;28.90;;;2.30;99.90;;;;;;5053062;28;20033;-73
2023/01/29 09:18:52;;;;;;;52.55;29.80;;;2.30;99.90;;;;;;5054080;28;20081;-71
2023/01/29 09:21:20;;;;;;;51.97;31.17;;;2.30;99.90;;;;;;5047302;28;20408;-70
2023/01/29 09:23:46;;;;;;;50.72;28.10;;;2.30;99.90;;;;;;5043165;28;20032;-71
2023/01/29 09:26:11;;;;;;;52.38;28.80;;;2.30;99.90;;;;;;5044525;28;20135;-70
2023/01/29 09:28:37;;;;;;;46.92;28.95;;;2.30;99.90;;;;;;5042775;28;20028;-72
2023/01/29 09:31:03;;;;;;;55.38;30.85;;;2.40;99.90;;;;;;5044416;28;20023;-74
2023/01/29 09:33:30;;;;;;;53.33;30.55;;;2.40;99.90;;;;;;5043962;28;20088;-71
2023/01/29 09:35:56;;;;;;;53.63;30.58;;;2.40;99.90;;;;;;5043179;28;20036;-71
2023/01/29 09:38:22;;;;;;;51.47;29.10;;;2.40;99.90;;;;;;5053851;28;20039;-72
2023/01/29 09:40:53;;;;;;;45.60;25.98;;;2.50;99.90;;;;;;5053389;28;20070;-72
2023/01/29 09:43:48;;;;;;;43.15;26.55;;;2.50;99.90;;;;;;5051435;28;20039;-71
2023/01/29 09:46:23;;;;;;;44.45;26.30;;;2.50;99.90;;;;;;5043519;28;20043;-69
2023/01/29 09:49:11;;;;;;;45.10;27.52;;;2.50;99.90;;;;;;5048060;28;20021;-69
2023/01/29 09:51:40;;;;;;;43.80;27.42;;;2.60;99.90;;;;;;5042592;28;20063;-72
2023/01/29 09:54:15;;;;;;;43.80;26.20;;;2.70;99.90;;;;;;5045412;28;20494;-69
2023/01/29 09:56:43;;;;;;;48.28;27.65;;;2.80;99.90;;;;;;5044391;28;20025;-71
2023/01/29 09:59:12;;;;;;;45.92;27.75;;;2.80;99.90;;;;;;5044459;28;20132;-72
2023/01/29 10:02:07;;;;;;;51.35;29.75;;;2.80;99.90;;;;;;5042869;28;20025;-72
2023/01/29 10:04:33;;;;;;;49.08;29.27;;;2.80;99.90;;;;;;5019893;28;20046;-71
2023/01/29 10:07:16;;;;;;;49.53;27.02;;;2.80;99.90;;;;;;5021607;28;20079;-71
2023/01/29 10:10:17;;;;;;;49.88;26.67;;;2.70;99.90;;;;;;5020301;28;20153;-71
2023/01/29 10:13:01;;;;;;;46.67;29.55;;;2.70;99.90;;;;;;4999812;28;20048;-71
2023/01/29 10:15:27;;;;;;;42.88;26.17;;;2.70;99.90;;;;;;5020578;28;20033;-71
2023/01/29 10:18:29;;;;;;;42.72;26.20;;;2.60;99.90;;;;;;5023177;28;20120;-71
2023/01/29 10:21:15;;;;;;;60.45;39.90;;;2.60;99.90;;;;;;5012392;28;20520;-71
2023/01/29 10:23:49;;;;;;;59.47;33.17;;;2.60;99.90;;;;;;5011202;28;20075;-71
2023/01/29 10:26:15;;;;;;;55.78;32.15;;;2.70;99.90;;;;;;5011400;28;20410;-72
2023/01/29 10:28:45;;;;;;;54.40;28.35;;;2.70;99.90;;;;;;5011239;28;20040;-73
2023/01/29 10:31:30;;;;;;;47.38;27.80;;;2.70;99.90;;;;;;4994813;28;20131;-72
2023/01/29 10:34:09;;;;;;;44.42;27.67;;;2.70;99.90;;;;;;5008273;28;20034;-72
2023/01/29 10:36:43;;;;;;;46.85;27.08;;;2.70;99.90;;;;;;5011094;28;20034;-72
2023/01/29 10:39:17;;;;;;;46.88;26.00;;;2.80;99.90;;;;;;5011258;28;20085;-72
2023/01/29 10:41:58;;;;;;;45.33;25.35;;;2.70;99.90;;;;;;5041545;28;20389;-73
2023/01/29 10:44:45;;;;;;;45.15;24.83;;;2.70;99.90;;;;;;5050998;28;20033;-72
2023/01/29 10:47:43;;;;;;;42.20;24.08;;;2.70;99.90;;;;;;5049255;28;20112;-73
2023/01/29 10:50:43;;;;;;;41.13;24.27;;;2.70;99.90;;;;;;5045384;28;20461;-73
2023/01/29 10:53:41;;;;;;;43.53;24.98;;;2.80;99.90;;;;;;5043697;28;20055;-73
2023/01/29 10:56:37;;;;;;;42.10;23.10;;;2.90;99.90;;;;;;5009501;28;20044;-73
2023/01/29 10:59:21;;;;;;;47.15;26.52;;;2.90;99.90;;;;;;5007148;28;20050;-73
2023/01/29 11:01:47;;;;;;;42.58;26.08;;;2.90;99.90;;;;;;5009629;28;20645;-73
2023/01/29 11:04:14;;;;;;;38.75;22.73;;;3.00;99.90;;;;;;5010500;28;20099;-73
2023/01/29 11:06:39;;;;;;;44.83;26.45;;;3.00;99.90;;;;;;5008279;28;20095;-73
2023/01/29 11:09:25;;;;;;;44.72;27.60;;;2.90;99.90;;;;;;5009736;28;20113;-73
2023/01/29 11:11:55;;;;;;;43.65;24.48;;;3.00;99.90;;;;;;4997780;28;20486;-73
2023/01/29 11:14:32;;;;;;;49.15;26.42;;;3.00;99.90;;;;;;5009798;28;20036;-72
2023/01/29 11:16:58;;;;;;;42.05;24.92;;;3.00;99.90;;;;;;5007838;28;20386;-72
2023/01/29 11:19:43;;;;;;;49.22;27.20;;;3.10;99.90;;;;;;5009218;28;20050;-73
2023/01/29 11:22:24;;;;;;;37.10;23.65;;;3.10;99.90;;;;;;5009679;28;20050;-73
2023/01/29 11:25:06;;;;;;;40.95;24.17;;;3.00;99.90;;;;;;4997691;28;20054;-73
2023/01/29 11:27:34;;;;;;;39.00;23.92;;;2.90;99.90;;;;;;5009510;28;20026;-73
2023/01/29 11:30:00;;;;;;;52.60;30.98;;;2.90;99.90;;;;;;5009041;28;20215;-73
2023/01/29 11:32:31;;;;;;;42.63;24.88;;;2.90;99.90;;;;;;5042200;28;20112;-73
2023/01/29 11:35:15;;;;;;;46.33;26.80;;;2.90;99.90;;;;;;5051665;28;20143;-71
2023/01/29 11:37:43;;;;;;;46.38;25.45;;;2.90;99.90;;;;;;5051038;28;20061;-71
2023/01/29 11:40:18;;;;;;;46.08;25.42;;;2.90;99.90;;;;;;5050946;28;20561;-71
2023/01/29 11:42:48;;;;;;;41.58;24.42;;;2.90;99.90;;;;;;5048021;28;20036;-71
2023/01/29 11:45:26;;;;;;;47.53;27.70;;;2.80;99.90;;;;;;5049124;28;20170;-70
2023/01/29 11:47:54;;;;;;;44.10;25.67;;;2.90;99.90;;;;;;5047194;28;20373;-71
2023/01/29 11:50:24;;;;;;;43.90;25.85;;;3.00;99.90;;;;;;5029991;28;20030;-73
2023/01/29 11:52:50;;;;;;;46.90;26.35;;;3.00;99.90;;;;;;5030581;28;20040;-73
2023/01/29 11:55:16;;;;;;;42.78;25.67;;;3.10;99.90;;;;;;5042057;28;20029;-73
2023/01/29 11:57:47;;;;;;;37.17;20.48;;;3.00;99.90;;;;;;5031055;28;20083;-72
2023/01/29 12:00:30;;;;;;;40.05;21.23;;;3.00;99.90;;;;;;5036224;28;20047;-73
2023/01/29 12:03:02;;;;;;;37.85;22.23;;;3.00;99.90;;;;;;5038965;28;20032;-73
2023/01/29 12:05:28;;;;;;;36.20;20.80;;;3.10;99.90;;;;;;5035142;28;20480;-73
2023/01/29 12:07:56;;;;;;;44.33;23.05;;;3.10;99.90;;;;;;5050952;28;20021;-73
2023/01/29 12:10:30;;;;;;;39.70;22.92;;;3.20;99.90;;;;;;5051277;28;20053;-73
2023/01/29 12:13:14;;;;;;;43.53;24.25;;;3.20;99.90;;;;;;5054345;28;20032;-73
2023/01/29 12:15:41;;;;;;;44.88;24.30;;;3.30;99.90;;;;;;5043583;28;20082;-73
2023/01/29 12:18:26;;;;;;;41.10;21.85;;;3.30;99.90;;;;;;5054661;28;20021;-75
2023/01/29 12:21:03;;;;;;;34.20;20.42;;;3.30;99.90;;;;;;5054514;28;20080;-73
2023/01/29 12:23:40;;;;;;;39.50;23.67;;;3.20;99.90;;;;;;5054305;28;20067;-73
2023/01/29 12:26:32;;;;;;;38.65;21.75;;;3.20;99.90;;;;;;5051799;28;20029;-73
2023/01/29 12:29:16;;;;;;;41.58;23.90;;;3.20;99.90;;;;;;5032137;28;20060;-73
2023/01/29 12:31:47;;;;;;;40.10;23.52;;;3.20;99.90;;;;;;5039415;28;20025;-73
2023/01/29 12:34:12;;;;;;;36.38;21.15;;;3.20;99.90;;;;;;5033076;28;20030;-73
2023/01/29 12:36:54;;;;;;;48.60;27.90;;;3.30;99.90;;;;;;5037614;28;20443;-73
2023/01/29 12:39:20;;;;;;;51.13;29.35;;;3.30;99.90;;;;;;5062263;28;20045;-73
2023/01/29 12:42:07;;;;;;;47.00;27.20;;;3.30;99.90;;;;;;5044718;28;20041;-73
2023/01/29 12:44:50;;;;;;;45.35;24.73;;;3.30;99.90;;;;;;5038378;28;20075;-73
2023/01/29 12:47:55;;;;;;;42.92;24.92;;;3.30;99.90;;;;;;5032783;28;20530;-73
2023/01/29 12:50:32;;;;;;;38.85;23.40;;;3.50;99.90;;;;;;4973526;28;20135;-73
2023/01/29 12:53:04;;;;;;;37.33;22.55;;;3.50;99.90;;;;;;4973305;28;20034;-73
2023/01/29 12:55:42;;;;;;;39.80;23.75;;;3.60;99.90;;;;;;4991662;28;20440;-72
2023/01/29 12:58:21;;;;;;;37.78;21.35;;;3.50;99.90;;;;;;4992401;28;20073;-73
2023/01/29 13:00:50;;;;;;;41.53;24.15;;;3.60;99.90;;;;;;4989612;28;20161;-73
2023/01/29 13:03:35;;;;;;;40.17;21.80;;;3.50;99.90;;;;;;4971652;28;20371;-72
2023/01/29 13:06:22;;;;;;;43.65;23.55;;;3.60;99.90;;;;;;4987967;28;20050;-73
2023/01/29 13:08:55;;;;;;;34.85;21.55;;;3.60;99.90;;;;;;4992434;28;20477;-73
2023/01/29 13:11:41;;;;;;;34.67;21.02;;;3.50;99.90;;;;;;4991976;28;20026;-73
2023/01/29 13:14:32;;;;;;;36.50;19.77;;;3.40;99.90;;;;;;4997009;28;20497;-73
2023/01/29 13:17:27;;;;;;;36.10;21.70;;;3.50;99.90;;;;;;4995980;28;20027;-74
2023/01/29 13:19:57;;;;;;;35.72;20.35;;;3.40;99.90;;;;;;4985901;28;20054;-74
2023/01/29 13:22:26;;;;;;;35.97;22.02;;;3.40;99.90;;;;;;4992141;28;20035;-73
2023/01/29 13:24:52;;;;;;;39.72;21.10;;;3.30;99.90;;;;;;4996096;28;20041;-74
2023/01/29 13:27:26;;;;;;;37.10;20.30;;;3.30;99.90;;;;;;5042066;28;20033;-71
2023/01/29 13:29:55;;;;;;;36.75;21.20;;;3.30;99.90;;;;;;5042383;28;20021;-73
2023/01/29 13:32:27;;;;;;;38.53;22.38;;;3.40;99.90;;;;;;5044328;28;20345;-74
2023/01/29 13:35:11;;;;;;;35.30;20.38;;;3.40;99.90;;;;;;5042859;28;20056;-73
2023/01/29 13:37:39;;;;;;;;;;;3.40;99.90;;;;;;5044513;28;20031;-74
2023/01/29 13:40:07;;;;;;;37.70;22.27;;;3.50;99.90;;;;;;5039377;28;19912;-73